sensor_id;sensor_type;location;lat;lon;timestamp;P1;durP1;ratioP1;P2;durP2;ratioP2
6549;SDS011;15142;48.888;9.134;2023-02-01T00:00:25;4.90;;;3.23;;
6549;SDS011;15142;48.888;9.134;2023-02-01T00:02:52;5.80;;;3.73;;
6549;SDS011;15142;48.888;9.134;2023-02-01T00:05:19;5.10;;;2.70;;
6549;SDS011;15142;48.888;9.134;2023-02-01T00:07:46;5.33;;;3.67;;
6549;SDS011;15142;48.888;9.134;2023-02-01T00:10:14;4.17;;;3.00;;
6549;SDS011;15142;48.888;9.134;2023-02-01T00:12:42;2.63;;;2.30;;
6549;SDS011;15142;48.888;9.134;2023-02-01T00:15:10;4.00;;;3.13;;
6549;SDS011;15142;48.888;9.134;2023-02-01T00:17:37;3.63;;;3.27;;
6549;SDS011;15142;48.888;9.134;2023-02-01T00:20:05;4.23;;;3.20;;
6549;SDS011;15142;48.888;9.134;2023-02-01T00:22:32;3.57;;;3.27;;
6549;SDS011;15142;48.888;9.134;2023-02-01T00:24:58;3.20;;;2.90;;
6549;SDS011;15142;48.888;9.134;2023-02-01T00:27:25;4.90;;;3.53;;
6549;SDS011;15142;48.888;9.134;2023-02-01T00:29:53;3.33;;;2.80;;
6549;SDS011;15142;48.888;9.134;2023-02-01T00:32:21;2.63;;;2.43;;
6549;SDS011;15142;48.888;9.134;2023-02-01T00:34:48;3.20;;;2.87;;
6549;SDS011;15142;48.888;9.134;2023-02-01T00:37:15;3.23;;;2.70;;
6549;SDS011;15142;48.888;9.134;2023-02-01T00:39:41;8.53;;;3.07;;
6549;SDS011;15142;48.888;9.134;2023-02-01T00:42:08;3.17;;;2.63;;
6549;SDS011;15142;48.888;9.134;2023-02-01T00:44:35;4.73;;;3.00;;
6549;SDS011;15142;48.888;9.134;2023-02-01T00:47:01;3.93;;;2.80;;
6549;SDS011;15142;48.888;9.134;2023-02-01T00:49:29;5.70;;;3.70;;
6549;SDS011;15142;48.888;9.134;2023-02-01T00:51:56;3.80;;;2.53;;
6549;SDS011;15142;48.888;9.134;2023-02-01T00:54:22;8.43;;;2.70;;
6549;SDS011;15142;48.888;9.134;2023-02-01T00:56:49;3.50;;;2.53;;
6549;SDS011;15142;48.888;9.134;2023-02-01T00:59:17;2.67;;;2.47;;
6549;SDS011;15142;48.888;9.134;2023-02-01T01:01:44;2.40;;;2.20;;
6549;SDS011;15142;48.888;9.134;2023-02-01T01:04:11;2.30;;;2.10;;
6549;SDS011;15142;48.888;9.134;2023-02-01T01:06:39;5.80;;;2.37;;
6549;SDS011;15142;48.888;9.134;2023-02-01T01:09:06;11.50;;;3.87;;
6549;SDS011;15142;48.888;9.134;2023-02-01T01:11:35;4.10;;;3.07;;
6549;SDS011;15142;48.888;9.134;2023-02-01T01:14:05;3.70;;;3.40;;
6549;SDS011;15142;48.888;9.134;2023-02-01T01:16:34;2.53;;;2.27;;
6549;SDS011;15142;48.888;9.134;2023-02-01T01:19:01;4.40;;;3.07;;
6549;SDS011;15142;48.888;9.134;2023-02-01T01:21:28;4.17;;;2.60;;
6549;SDS011;15142;48.888;9.134;2023-02-01T01:23:57;3.80;;;2.50;;
6549;SDS011;15142;48.888;9.134;2023-02-01T01:26:24;5.13;;;2.67;;
6549;SDS011;15142;48.888;9.134;2023-02-01T01:28:54;5.60;;;3.00;;
6549;SDS011;15142;48.888;9.134;2023-02-01T01:31:21;6.37;;;3.60;;
6549;SDS011;15142;48.888;9.134;2023-02-01T01:33:49;3.90;;;3.00;;
6549;SDS011;15142;48.888;9.134;2023-02-01T01:36:16;3.20;;;2.63;;
6549;SDS011;15142;48.888;9.134;2023-02-01T01:38:43;2.73;;;2.50;;
6549;SDS011;15142;48.888;9.134;2023-02-01T01:41:13;6.20;;;3.40;;
6549;SDS011;15142;48.888;9.134;2023-02-01T01:43:50;5.27;;;3.10;;
6549;SDS011;15142;48.888;9.134;2023-02-01T01:46:21;4.13;;;3.60;;
6549;SDS011;15142;48.888;9.134;2023-02-01T01:48:50;2.37;;;2.10;;
6549;SDS011;15142;48.888;9.134;2023-02-01T01:51:22;6.30;;;3.60;;
6549;SDS011;15142;48.888;9.134;2023-02-01T01:53:57;3.63;;;2.87;;
6549;SDS011;15142;48.888;9.134;2023-02-01T01:56:29;7.93;;;3.57;;
6549;SDS011;15142;48.888;9.134;2023-02-01T01:58:59;5.93;;;3.67;;
6549;SDS011;15142;48.888;9.134;2023-02-01T02:01:26;3.50;;;2.60;;
6549;SDS011;15142;48.888;9.134;2023-02-01T02:03:53;2.73;;;2.50;;
6549;SDS011;15142;48.888;9.134;2023-02-01T02:06:25;3.00;;;2.30;;
6549;SDS011;15142;48.888;9.134;2023-02-01T02:08:58;5.10;;;3.00;;
6549;SDS011;15142;48.888;9.134;2023-02-01T02:11:25;3.70;;;2.33;;
6549;SDS011;15142;48.888;9.134;2023-02-01T02:13:53;8.03;;;2.80;;
6549;SDS011;15142;48.888;9.134;2023-02-01T02:25:43;4.43;;;2.07;;
6549;SDS011;15142;48.888;9.134;2023-02-01T02:31:23;1.87;;;1.77;;
6549;SDS011;15142;48.888;9.134;2023-02-01T02:34:08;3.03;;;2.73;;
6549;SDS011;15142;48.888;9.134;2023-02-01T02:36:43;4.83;;;2.43;;
6549;SDS011;15142;48.888;9.134;2023-02-01T02:39:23;2.30;;;2.00;;
6549;SDS011;15142;48.888;9.134;2023-02-01T02:42:00;2.03;;;1.93;;
6549;SDS011;15142;48.888;9.134;2023-02-01T02:44:53;2.37;;;1.70;;
6549;SDS011;15142;48.888;9.134;2023-02-01T02:47:42;2.90;;;2.37;;
6549;SDS011;15142;48.888;9.134;2023-02-01T02:50:20;1.30;;;1.23;;
6549;SDS011;15142;48.888;9.134;2023-02-01T02:53:12;2.80;;;1.90;;
6549;SDS011;15142;48.888;9.134;2023-02-01T02:55:59;2.07;;;1.97;;
6549;SDS011;15142;48.888;9.134;2023-02-01T02:58:45;2.17;;;1.77;;
6549;SDS011;15142;48.888;9.134;2023-02-01T03:01:30;3.57;;;2.30;;
6549;SDS011;15142;48.888;9.134;2023-02-01T03:04:16;1.43;;;1.37;;
6549;SDS011;15142;48.888;9.134;2023-02-01T03:06:47;7.60;;;1.80;;
6549;SDS011;15142;48.888;9.134;2023-02-01T03:09:14;1.90;;;1.80;;
6549;SDS011;15142;48.888;9.134;2023-02-01T03:11:45;1.87;;;1.80;;
6549;SDS011;15142;48.888;9.134;2023-02-01T03:14:31;2.00;;;1.90;;
6549;SDS011;15142;48.888;9.134;2023-02-01T03:17:01;3.23;;;1.60;;
6549;SDS011;15142;48.888;9.134;2023-02-01T03:19:33;2.13;;;1.97;;
6549;SDS011;15142;48.888;9.134;2023-02-01T03:22:05;2.20;;;2.03;;
6549;SDS011;15142;48.888;9.134;2023-02-01T03:24:36;2.93;;;2.63;;
6549;SDS011;15142;48.888;9.134;2023-02-01T03:27:10;2.80;;;1.97;;
6549;SDS011;15142;48.888;9.134;2023-02-01T03:29:50;4.63;;;1.83;;
6549;SDS011;15142;48.888;9.134;2023-02-01T03:32:22;2.10;;;1.90;;
6549;SDS011;15142;48.888;9.134;2023-02-01T03:34:49;2.77;;;2.40;;
6549;SDS011;15142;48.888;9.134;2023-02-01T03:37:21;2.67;;;1.80;;
6549;SDS011;15142;48.888;9.134;2023-02-01T03:39:52;2.70;;;2.50;;
6549;SDS011;15142;48.888;9.134;2023-02-01T03:42:24;3.67;;;3.03;;
6549;SDS011;15142;48.888;9.134;2023-02-01T03:44:57;2.80;;;2.33;;
6549;SDS011;15142;48.888;9.134;2023-02-01T03:47:28;4.67;;;3.07;;
6549;SDS011;15142;48.888;9.134;2023-02-01T03:50:00;5.80;;;3.30;;
6549;SDS011;15142;48.888;9.134;2023-02-01T03:52:32;2.60;;;2.07;;
6549;SDS011;15142;48.888;9.134;2023-02-01T03:55:04;2.57;;;1.73;;
6549;SDS011;15142;48.888;9.134;2023-02-01T03:57:33;3.40;;;2.50;;
6549;SDS011;15142;48.888;9.134;2023-02-01T04:00:04;4.50;;;2.20;;
6549;SDS011;15142;48.888;9.134;2023-02-01T04:02:39;6.60;;;2.70;;
6549;SDS011;15142;48.888;9.134;2023-02-01T04:05:07;2.40;;;1.90;;
6549;SDS011;15142;48.888;9.134;2023-02-01T04:07:36;1.60;;;1.50;;
6549;SDS011;15142;48.888;9.134;2023-02-01T04:10:04;3.73;;;1.97;;
6549;SDS011;15142;48.888;9.134;2023-02-01T04:12:32;2.23;;;2.13;;
6549;SDS011;15142;48.888;9.134;2023-02-01T04:14:59;1.77;;;1.77;;
6549;SDS011;15142;48.888;9.134;2023-02-01T04:17:26;2.00;;;1.20;;
6549;SDS011;15142;48.888;9.134;2023-02-01T04:19:53;1.80;;;1.70;;
6549;SDS011;15142;48.888;9.134;2023-02-01T04:22:21;2.10;;;1.90;;
6549;SDS011;15142;48.888;9.134;2023-02-01T04:24:49;2.53;;;1.70;;
6549;SDS011;15142;48.888;9.134;2023-02-01T04:27:16;2.87;;;2.67;;
6549;SDS011;15142;48.888;9.134;2023-02-01T04:29:44;1.90;;;1.80;;
6549;SDS011;15142;48.888;9.134;2023-02-01T04:32:11;1.97;;;1.83;;
6549;SDS011;15142;48.888;9.134;2023-02-01T04:34:38;2.10;;;1.80;;
6549;SDS011;15142;48.888;9.134;2023-02-01T04:37:06;2.07;;;1.87;;
6549;SDS011;15142;48.888;9.134;2023-02-01T04:39:33;1.87;;;1.73;;
6549;SDS011;15142;48.888;9.134;2023-02-01T04:42:02;2.10;;;2.00;;
6549;SDS011;15142;48.888;9.134;2023-02-01T04:44:29;2.47;;;2.30;;
6549;SDS011;15142;48.888;9.134;2023-02-01T04:46:56;1.70;;;1.50;;
6549;SDS011;15142;48.888;9.134;2023-02-01T04:49:24;2.93;;;2.00;;
6549;SDS011;15142;48.888;9.134;2023-02-01T04:51:52;2.03;;;1.93;;
6549;SDS011;15142;48.888;9.134;2023-02-01T04:54:19;2.17;;;2.07;;
6549;SDS011;15142;48.888;9.134;2023-02-01T04:56:46;2.43;;;2.30;;
6549;SDS011;15142;48.888;9.134;2023-02-01T04:59:15;1.53;;;1.43;;
6549;SDS011;15142;48.888;9.134;2023-02-01T05:01:42;1.87;;;1.77;;
6549;SDS011;15142;48.888;9.134;2023-02-01T05:04:09;2.63;;;1.77;;
6549;SDS011;15142;48.888;9.134;2023-02-01T05:06:36;2.80;;;2.13;;
6549;SDS011;15142;48.888;9.134;2023-02-01T05:09:03;2.50;;;1.93;;
6549;SDS011;15142;48.888;9.134;2023-02-01T05:11:30;1.53;;;1.43;;
6549;SDS011;15142;48.888;9.134;2023-02-01T05:14:15;2.10;;;1.83;;
6549;SDS011;15142;48.888;9.134;2023-02-01T05:16:42;2.07;;;1.97;;
6549;SDS011;15142;48.888;9.134;2023-02-01T05:19:09;2.10;;;2.00;;
6549;SDS011;15142;48.888;9.134;2023-02-01T05:21:35;2.07;;;1.90;;
6549;SDS011;15142;48.888;9.134;2023-02-01T05:24:02;1.80;;;1.70;;
6549;SDS011;15142;48.888;9.134;2023-02-01T05:26:41;1.60;;;1.60;;
6549;SDS011;15142;48.888;9.134;2023-02-01T05:29:09;1.63;;;1.40;;
6549;SDS011;15142;48.888;9.134;2023-02-01T05:31:37;2.00;;;1.43;;
6549;SDS011;15142;48.888;9.134;2023-02-01T05:34:05;4.20;;;1.80;;
6549;SDS011;15142;48.888;9.134;2023-02-01T05:36:32;2.33;;;1.50;;
6549;SDS011;15142;48.888;9.134;2023-02-01T05:38:58;2.63;;;1.70;;
6549;SDS011;15142;48.888;9.134;2023-02-01T05:41:25;2.27;;;2.10;;
6549;SDS011;15142;48.888;9.134;2023-02-01T05:43:52;3.70;;;2.20;;
6549;SDS011;15142;48.888;9.134;2023-02-01T05:46:19;11.53;;;2.10;;
6549;SDS011;15142;48.888;9.134;2023-02-01T05:48:46;2.90;;;2.30;;
6549;SDS011;15142;48.888;9.134;2023-02-01T05:51:13;1.73;;;1.73;;
6549;SDS011;15142;48.888;9.134;2023-02-01T05:53:40;1.70;;;1.53;;
6549;SDS011;15142;48.888;9.134;2023-02-01T05:56:07;8.87;;;1.70;;
6549;SDS011;15142;48.888;9.134;2023-02-01T05:58:33;3.27;;;1.60;;
6549;SDS011;15142;48.888;9.134;2023-02-01T06:01:00;2.57;;;1.73;;
6549;SDS011;15142;48.888;9.134;2023-02-01T06:03:27;4.47;;;1.80;;
6549;SDS011;15142;48.888;9.134;2023-02-01T06:05:55;5.07;;;1.70;;
6549;SDS011;15142;48.888;9.134;2023-02-01T06:08:22;5.93;;;1.37;;
6549;SDS011;15142;48.888;9.134;2023-02-01T06:10:50;3.30;;;1.83;;
6549;SDS011;15142;48.888;9.134;2023-02-01T06:13:17;4.27;;;2.13;;
6549;SDS011;15142;48.888;9.134;2023-02-01T06:15:45;4.60;;;1.70;;
6549;SDS011;15142;48.888;9.134;2023-02-01T06:18:12;13.07;;;2.10;;
6549;SDS011;15142;48.888;9.134;2023-02-01T06:20:39;3.00;;;1.80;;
6549;SDS011;15142;48.888;9.134;2023-02-01T06:23:07;3.70;;;2.07;;
6549;SDS011;15142;48.888;9.134;2023-02-01T06:25:34;5.30;;;1.70;;
6549;SDS011;15142;48.888;9.134;2023-02-01T06:28:00;2.63;;;2.50;;
6549;SDS011;15142;48.888;9.134;2023-02-01T06:30:30;5.20;;;2.50;;
6549;SDS011;15142;48.888;9.134;2023-02-01T06:32:57;2.80;;;2.40;;
6549;SDS011;15142;48.888;9.134;2023-02-01T06:35:24;3.17;;;2.77;;
6549;SDS011;15142;48.888;9.134;2023-02-01T06:37:51;4.63;;;2.47;;
6549;SDS011;15142;48.888;9.134;2023-02-01T06:40:19;6.53;;;3.33;;
6549;SDS011;15142;48.888;9.134;2023-02-01T06:42:47;5.90;;;3.27;;
6549;SDS011;15142;48.888;9.134;2023-02-01T06:45:14;5.07;;;3.77;;
6549;SDS011;15142;48.888;9.134;2023-02-01T06:47:41;6.17;;;3.77;;
6549;SDS011;15142;48.888;9.134;2023-02-01T06:50:08;10.17;;;3.23;;
6549;SDS011;15142;48.888;9.134;2023-02-01T06:52:35;8.37;;;3.77;;
6549;SDS011;15142;48.888;9.134;2023-02-01T06:55:02;8.17;;;3.83;;
6549;SDS011;15142;48.888;9.134;2023-02-01T06:57:30;9.90;;;3.37;;
6549;SDS011;15142;48.888;9.134;2023-02-01T06:59:58;10.43;;;3.50;;
6549;SDS011;15142;48.888;9.134;2023-02-01T07:02:24;7.53;;;3.60;;
6549;SDS011;15142;48.888;9.134;2023-02-01T07:04:51;6.13;;;3.50;;
6549;SDS011;15142;48.888;9.134;2023-02-01T07:07:17;16.33;;;7.47;;
6549;SDS011;15142;48.888;9.134;2023-02-01T07:09:47;11.83;;;4.43;;
6549;SDS011;15142;48.888;9.134;2023-02-01T07:12:14;4.97;;;3.23;;
6549;SDS011;15142;48.888;9.134;2023-02-01T07:14:42;11.90;;;5.60;;
6549;SDS011;15142;48.888;9.134;2023-02-01T07:17:08;11.50;;;4.30;;
6549;SDS011;15142;48.888;9.134;2023-02-01T07:19:35;6.40;;;3.00;;
6549;SDS011;15142;48.888;9.134;2023-02-01T07:22:02;11.03;;;6.10;;
6549;SDS011;15142;48.888;9.134;2023-02-01T07:24:28;19.97;;;5.90;;
6549;SDS011;15142;48.888;9.134;2023-02-01T07:26:56;14.87;;;4.17;;
6549;SDS011;15142;48.888;9.134;2023-02-01T07:29:23;16.63;;;7.10;;
6549;SDS011;15142;48.888;9.134;2023-02-01T07:31:51;23.70;;;10.40;;
6549;SDS011;15142;48.888;9.134;2023-02-01T07:34:17;7.97;;;5.63;;
6549;SDS011;15142;48.888;9.134;2023-02-01T07:36:44;9.80;;;5.07;;
6549;SDS011;15142;48.888;9.134;2023-02-01T07:39:10;10.23;;;4.97;;
6549;SDS011;15142;48.888;9.134;2023-02-01T07:41:37;6.17;;;3.37;;
6549;SDS011;15142;48.888;9.134;2023-02-01T07:44:03;10.97;;;5.77;;
6549;SDS011;15142;48.888;9.134;2023-02-01T07:46:30;17.23;;;5.70;;
6549;SDS011;15142;48.888;9.134;2023-02-01T07:48:58;17.53;;;6.47;;
6549;SDS011;15142;48.888;9.134;2023-02-01T07:51:25;22.20;;;6.20;;
6549;SDS011;15142;48.888;9.134;2023-02-01T07:53:51;8.10;;;4.73;;
6549;SDS011;15142;48.888;9.134;2023-02-01T07:56:19;16.50;;;8.67;;
6549;SDS011;15142;48.888;9.134;2023-02-01T07:58:47;10.90;;;5.13;;
6549;SDS011;15142;48.888;9.134;2023-02-01T08:01:14;8.97;;;4.50;;
6549;SDS011;15142;48.888;9.134;2023-02-01T08:03:47;14.03;;;4.20;;
6549;SDS011;15142;48.888;9.134;2023-02-01T08:06:15;15.67;;;4.83;;
6549;SDS011;15142;48.888;9.134;2023-02-01T08:08:42;20.20;;;6.33;;
6549;SDS011;15142;48.888;9.134;2023-02-01T08:11:10;12.03;;;3.70;;
6549;SDS011;15142;48.888;9.134;2023-02-01T08:13:37;17.57;;;6.90;;
6549;SDS011;15142;48.888;9.134;2023-02-01T08:16:04;9.60;;;4.60;;
6549;SDS011;15142;48.888;9.134;2023-02-01T08:18:33;16.90;;;7.43;;
6549;SDS011;15142;48.888;9.134;2023-02-01T08:21:02;23.97;;;8.67;;
6549;SDS011;15142;48.888;9.134;2023-02-01T08:23:32;25.67;;;6.00;;
6549;SDS011;15142;48.888;9.134;2023-02-01T08:26:08;23.77;;;9.97;;
6549;SDS011;15142;48.888;9.134;2023-02-01T08:28:37;8.40;;;3.90;;
6549;SDS011;15142;48.888;9.134;2023-02-01T08:31:05;16.17;;;6.50;;
6549;SDS011;15142;48.888;9.134;2023-02-01T08:33:33;13.30;;;6.00;;
6549;SDS011;15142;48.888;9.134;2023-02-01T08:36:01;16.17;;;6.90;;
6549;SDS011;15142;48.888;9.134;2023-02-01T08:38:28;5.00;;;3.43;;
6549;SDS011;15142;48.888;9.134;2023-02-01T08:40:56;15.87;;;6.40;;
6549;SDS011;15142;48.888;9.134;2023-02-01T08:43:23;9.03;;;3.80;;
6549;SDS011;15142;48.888;9.134;2023-02-01T08:45:50;16.40;;;5.03;;
6549;SDS011;15142;48.888;9.134;2023-02-01T08:48:19;18.17;;;6.97;;
6549;SDS011;15142;48.888;9.134;2023-02-01T08:50:46;37.53;;;4.90;;
6549;SDS011;15142;48.888;9.134;2023-02-01T08:53:13;9.20;;;3.60;;
6549;SDS011;15142;48.888;9.134;2023-02-01T08:55:39;19.30;;;4.20;;
6549;SDS011;15142;48.888;9.134;2023-02-01T08:58:07;16.50;;;5.67;;
6549;SDS011;15142;48.888;9.134;2023-02-01T09:00:34;14.77;;;4.50;;
6549;SDS011;15142;48.888;9.134;2023-02-01T09:03:00;16.23;;;5.03;;
6549;SDS011;15142;48.888;9.134;2023-02-01T09:05:27;15.00;;;4.40;;
6549;SDS011;15142;48.888;9.134;2023-02-01T09:07:54;19.27;;;4.53;;
6549;SDS011;15142;48.888;9.134;2023-02-01T09:10:20;55.00;;;20.53;;
6549;SDS011;15142;48.888;9.134;2023-02-01T09:12:47;33.80;;;9.20;;
6549;SDS011;15142;48.888;9.134;2023-02-01T09:15:15;12.47;;;4.20;;
6549;SDS011;15142;48.888;9.134;2023-02-01T09:17:41;11.93;;;4.10;;
6549;SDS011;15142;48.888;9.134;2023-02-01T09:20:09;11.40;;;4.17;;
6549;SDS011;15142;48.888;9.134;2023-02-01T09:22:36;8.43;;;5.33;;
6549;SDS011;15142;48.888;9.134;2023-02-01T09:25:03;8.37;;;4.00;;
6549;SDS011;15142;48.888;9.134;2023-02-01T09:27:30;17.93;;;3.97;;
6549;SDS011;15142;48.888;9.134;2023-02-01T09:29:57;29.73;;;3.53;;
6549;SDS011;15142;48.888;9.134;2023-02-01T09:32:25;35.27;;;5.20;;
6549;SDS011;15142;48.888;9.134;2023-02-01T09:34:52;9.70;;;4.50;;
6549;SDS011;15142;48.888;9.134;2023-02-01T09:37:19;13.60;;;4.00;;
6549;SDS011;15142;48.888;9.134;2023-02-01T09:39:45;14.50;;;3.67;;
6549;SDS011;15142;48.888;9.134;2023-02-01T09:42:16;11.73;;;3.40;;
6549;SDS011;15142;48.888;9.134;2023-02-01T09:45:04;8.70;;;4.07;;
6549;SDS011;15142;48.888;9.134;2023-02-01T09:47:38;14.20;;;3.57;;
6549;SDS011;15142;48.888;9.134;2023-02-01T09:50:13;9.00;;;4.17;;
6549;SDS011;15142;48.888;9.134;2023-02-01T09:52:43;15.23;;;4.10;;
6549;SDS011;15142;48.888;9.134;2023-02-01T09:55:13;27.20;;;5.10;;
6549;SDS011;15142;48.888;9.134;2023-02-01T09:57:45;23.77;;;6.17;;
6549;SDS011;15142;48.888;9.134;2023-02-01T10:00:20;19.53;;;3.87;;
6549;SDS011;15142;48.888;9.134;2023-02-01T10:02:52;25.50;;;7.10;;
6549;SDS011;15142;48.888;9.134;2023-02-01T10:05:22;18.77;;;5.50;;
6549;SDS011;15142;48.888;9.134;2023-02-01T10:07:58;13.90;;;5.53;;
6549;SDS011;15142;48.888;9.134;2023-02-01T10:10:30;24.90;;;5.30;;
6549;SDS011;15142;48.888;9.134;2023-02-01T10:13:09;12.67;;;3.77;;
6549;SDS011;15142;48.888;9.134;2023-02-01T10:15:50;22.40;;;3.00;;
6549;SDS011;15142;48.888;9.134;2023-02-01T10:18:33;20.03;;;3.00;;
6549;SDS011;15142;48.888;9.134;2023-02-01T10:21:10;15.00;;;5.13;;
6549;SDS011;15142;48.888;9.134;2023-02-01T10:23:53;28.60;;;9.40;;
6549;SDS011;15142;48.888;9.134;2023-02-01T10:26:33;12.97;;;3.73;;
6549;SDS011;15142;48.888;9.134;2023-02-01T10:29:04;13.30;;;3.57;;
6549;SDS011;15142;48.888;9.134;2023-02-01T10:31:37;9.00;;;2.30;;
6549;SDS011;15142;48.888;9.134;2023-02-01T10:34:07;16.97;;;3.60;;
6549;SDS011;15142;48.888;9.134;2023-02-01T10:36:42;17.97;;;3.60;;
6549;SDS011;15142;48.888;9.134;2023-02-01T10:39:21;17.87;;;3.20;;
6549;SDS011;15142;48.888;9.134;2023-02-01T10:41:48;20.67;;;3.30;;
6549;SDS011;15142;48.888;9.134;2023-02-01T10:44:16;10.20;;;2.93;;
6549;SDS011;15142;48.888;9.134;2023-02-01T10:46:45;16.90;;;3.13;;
6549;SDS011;15142;48.888;9.134;2023-02-01T10:49:13;14.20;;;3.30;;
6549;SDS011;15142;48.888;9.134;2023-02-01T10:51:45;15.33;;;4.27;;
6549;SDS011;15142;48.888;9.134;2023-02-01T10:54:18;12.00;;;2.90;;
6549;SDS011;15142;48.888;9.134;2023-02-01T10:56:46;12.83;;;3.70;;
6549;SDS011;15142;48.888;9.134;2023-02-01T10:59:15;7.60;;;3.00;;
6549;SDS011;15142;48.888;9.134;2023-02-01T11:01:44;13.73;;;2.53;;
6549;SDS011;15142;48.888;9.134;2023-02-01T11:04:15;10.73;;;3.40;;
6549;SDS011;15142;48.888;9.134;2023-02-01T11:06:44;27.43;;;3.33;;
6549;SDS011;15142;48.888;9.134;2023-02-01T11:09:16;12.30;;;4.33;;
6549;SDS011;15142;48.888;9.134;2023-02-01T11:11:53;15.53;;;4.40;;
6549;SDS011;15142;48.888;9.134;2023-02-01T11:14:26;14.70;;;4.03;;
6549;SDS011;15142;48.888;9.134;2023-02-01T11:16:59;15.40;;;3.67;;
6549;SDS011;15142;48.888;9.134;2023-02-01T11:19:28;17.43;;;5.53;;
6549;SDS011;15142;48.888;9.134;2023-02-01T11:21:57;14.27;;;3.33;;
6549;SDS011;15142;48.888;9.134;2023-02-01T11:24:26;17.27;;;5.53;;
6549;SDS011;15142;48.888;9.134;2023-02-01T11:26:56;23.33;;;5.13;;
6549;SDS011;15142;48.888;9.134;2023-02-01T11:29:24;6.63;;;3.17;;
6549;SDS011;15142;48.888;9.134;2023-02-01T11:31:54;11.10;;;4.17;;
6549;SDS011;15142;48.888;9.134;2023-02-01T11:34:23;6.57;;;3.73;;
6549;SDS011;15142;48.888;9.134;2023-02-01T11:36:53;12.10;;;3.20;;
6549;SDS011;15142;48.888;9.134;2023-02-01T11:39:25;11.87;;;4.07;;
6549;SDS011;15142;48.888;9.134;2023-02-01T11:42:01;17.83;;;2.97;;
6549;SDS011;15142;48.888;9.134;2023-02-01T11:44:31;17.37;;;4.30;;
6549;SDS011;15142;48.888;9.134;2023-02-01T11:47:22;16.03;;;4.77;;
6549;SDS011;15142;48.888;9.134;2023-02-01T11:49:50;10.87;;;3.03;;
6549;SDS011;15142;48.888;9.134;2023-02-01T11:52:24;31.17;;;2.80;;
6549;SDS011;15142;48.888;9.134;2023-02-01T11:58:06;22.13;;;2.50;;
6549;SDS011;15142;48.888;9.134;2023-02-01T12:00:45;10.70;;;2.20;;
6549;SDS011;15142;48.888;9.134;2023-02-01T12:05:53;15.33;;;3.80;;
6549;SDS011;15142;48.888;9.134;2023-02-01T12:08:29;10.93;;;3.10;;
6549;SDS011;15142;48.888;9.134;2023-02-01T12:11:20;6.47;;;3.03;;
6549;SDS011;15142;48.888;9.134;2023-02-01T12:13:55;14.27;;;2.80;;
6549;SDS011;15142;48.888;9.134;2023-02-01T12:16:34;14.83;;;2.73;;
6549;SDS011;15142;48.888;9.134;2023-02-01T12:19:19;15.60;;;2.43;;
6549;SDS011;15142;48.888;9.134;2023-02-01T12:22:08;9.10;;;2.07;;
6549;SDS011;15142;48.888;9.134;2023-02-01T12:27:55;16.20;;;3.20;;
6549;SDS011;15142;48.888;9.134;2023-02-01T12:30:48;10.70;;;2.40;;
6549;SDS011;15142;48.888;9.134;2023-02-01T12:33:57;23.90;;;3.07;;
6549;SDS011;15142;48.888;9.134;2023-02-01T12:36:36;12.50;;;4.10;;
6549;SDS011;15142;48.888;9.134;2023-02-01T12:39:14;7.37;;;3.00;;
6549;SDS011;15142;48.888;9.134;2023-02-01T12:41:51;5.83;;;2.53;;
6549;SDS011;15142;48.888;9.134;2023-02-01T12:47:18;12.83;;;3.00;;
6549;SDS011;15142;48.888;9.134;2023-02-01T12:49:53;15.47;;;2.40;;
6549;SDS011;15142;48.888;9.134;2023-02-01T12:52:26;8.40;;;2.57;;
6549;SDS011;15142;48.888;9.134;2023-02-01T12:55:01;14.23;;;4.33;;
6549;SDS011;15142;48.888;9.134;2023-02-01T12:57:35;11.73;;;3.37;;
6549;SDS011;15142;48.888;9.134;2023-02-01T13:00:07;8.37;;;3.17;;
6549;SDS011;15142;48.888;9.134;2023-02-01T13:02:49;6.67;;;3.60;;
6549;SDS011;15142;48.888;9.134;2023-02-01T13:05:21;13.90;;;3.10;;
6549;SDS011;15142;48.888;9.134;2023-02-01T13:07:51;8.53;;;2.63;;
6549;SDS011;15142;48.888;9.134;2023-02-01T13:10:24;15.40;;;4.13;;
6549;SDS011;15142;48.888;9.134;2023-02-01T13:12:58;23.70;;;3.10;;
6549;SDS011;15142;48.888;9.134;2023-02-01T13:15:30;24.13;;;3.27;;
6549;SDS011;15142;48.888;9.134;2023-02-01T13:18:03;16.03;;;3.30;;
6549;SDS011;15142;48.888;9.134;2023-02-01T13:20:34;22.97;;;3.57;;
6549;SDS011;15142;48.888;9.134;2023-02-01T13:23:08;10.70;;;2.73;;
6549;SDS011;15142;48.888;9.134;2023-02-01T13:25:43;12.70;;;3.63;;
6549;SDS011;15142;48.888;9.134;2023-02-01T13:28:16;11.87;;;3.03;;
6549;SDS011;15142;48.888;9.134;2023-02-01T13:33:49;20.07;;;2.90;;
6549;SDS011;15142;48.888;9.134;2023-02-01T13:36:33;15.47;;;3.30;;
6549;SDS011;15142;48.888;9.134;2023-02-01T13:39:17;13.43;;;2.50;;
6549;SDS011;15142;48.888;9.134;2023-02-01T13:42:02;13.43;;;3.30;;
6549;SDS011;15142;48.888;9.134;2023-02-01T13:44:33;16.90;;;4.23;;
6549;SDS011;15142;48.888;9.134;2023-02-01T13:47:10;8.83;;;2.17;;
6549;SDS011;15142;48.888;9.134;2023-02-01T13:49:44;14.20;;;3.13;;
6549;SDS011;15142;48.888;9.134;2023-02-01T13:52:21;9.17;;;3.20;;
6549;SDS011;15142;48.888;9.134;2023-02-01T13:55:00;8.13;;;2.00;;
6549;SDS011;15142;48.888;9.134;2023-02-01T13:57:32;6.63;;;2.57;;
6549;SDS011;15142;48.888;9.134;2023-02-01T14:00:08;17.90;;;5.63;;
6549;SDS011;15142;48.888;9.134;2023-02-01T14:02:50;12.03;;;2.40;;
6549;SDS011;15142;48.888;9.134;2023-02-01T14:09:18;9.37;;;2.47;;
6549;SDS011;15142;48.888;9.134;2023-02-01T14:11:56;9.30;;;3.07;;
6549;SDS011;15142;48.888;9.134;2023-02-01T14:14:37;5.73;;;2.53;;
6549;SDS011;15142;48.888;9.134;2023-02-01T14:23:17;18.47;;;3.60;;
6549;SDS011;15142;48.888;9.134;2023-02-01T14:26:14;10.50;;;4.60;;
6549;SDS011;15142;48.888;9.134;2023-02-01T14:28:45;8.77;;;3.40;;
6549;SDS011;15142;48.888;9.134;2023-02-01T14:31:25;8.23;;;2.57;;
6549;SDS011;15142;48.888;9.134;2023-02-01T14:33:59;17.03;;;2.63;;
6549;SDS011;15142;48.888;9.134;2023-02-01T14:36:38;23.47;;;2.67;;
6549;SDS011;15142;48.888;9.134;2023-02-01T14:39:17;16.83;;;2.93;;
6549;SDS011;15142;48.888;9.134;2023-02-01T14:41:46;16.70;;;3.30;;
6549;SDS011;15142;48.888;9.134;2023-02-01T14:44:21;8.83;;;3.23;;
6549;SDS011;15142;48.888;9.134;2023-02-01T14:49:54;14.90;;;3.23;;
6549;SDS011;15142;48.888;9.134;2023-02-01T14:52:28;4.33;;;2.67;;
6549;SDS011;15142;48.888;9.134;2023-02-01T14:55:00;6.90;;;2.37;;
6549;SDS011;15142;48.888;9.134;2023-02-01T14:57:31;12.00;;;3.10;;
6549;SDS011;15142;48.888;9.134;2023-02-01T15:00:07;12.90;;;2.40;;
6549;SDS011;15142;48.888;9.134;2023-02-01T15:02:42;7.83;;;2.60;;
6549;SDS011;15142;48.888;9.134;2023-02-01T15:08:11;8.90;;;2.50;;
6549;SDS011;15142;48.888;9.134;2023-02-01T15:10:43;15.03;;;3.17;;
6549;SDS011;15142;48.888;9.134;2023-02-01T15:13:17;13.17;;;3.70;;
6549;SDS011;15142;48.888;9.134;2023-02-01T15:15:59;7.43;;;2.20;;
6549;SDS011;15142;48.888;9.134;2023-02-01T15:18:26;6.20;;;3.30;;
6549;SDS011;15142;48.888;9.134;2023-02-01T15:20:57;14.43;;;3.13;;
6549;SDS011;15142;48.888;9.134;2023-02-01T15:23:24;11.97;;;2.70;;
6549;SDS011;15142;48.888;9.134;2023-02-01T15:25:51;10.97;;;3.47;;
6549;SDS011;15142;48.888;9.134;2023-02-01T15:28:18;11.20;;;3.20;;
6549;SDS011;15142;48.888;9.134;2023-02-01T15:30:53;8.47;;;2.30;;
6549;SDS011;15142;48.888;9.134;2023-02-01T15:33:21;19.43;;;4.17;;
6549;SDS011;15142;48.888;9.134;2023-02-01T15:35:48;8.23;;;1.90;;
6549;SDS011;15142;48.888;9.134;2023-02-01T15:38:38;13.20;;;2.80;;
6549;SDS011;15142;48.888;9.134;2023-02-01T15:41:07;9.67;;;2.30;;
6549;SDS011;15142;48.888;9.134;2023-02-01T15:43:37;4.00;;;1.70;;
6549;SDS011;15142;48.888;9.134;2023-02-01T15:46:07;8.17;;;2.67;;
6549;SDS011;15142;48.888;9.134;2023-02-01T15:48:38;18.63;;;2.90;;
6549;SDS011;15142;48.888;9.134;2023-02-01T15:51:11;6.87;;;2.37;;
6549;SDS011;15142;48.888;9.134;2023-02-01T15:53:44;11.70;;;2.60;;
6549;SDS011;15142;48.888;9.134;2023-02-01T15:56:16;9.13;;;2.50;;
6549;SDS011;15142;48.888;9.134;2023-02-01T15:58:49;16.87;;;3.03;;
6549;SDS011;15142;48.888;9.134;2023-02-01T16:01:18;6.70;;;2.93;;